Nuiqsut, AK

8:31 AM AKDT on May 26, 2017 (GMT -0800)
Nuiqsut | | Change Station

Elev 36 ft 70.21 °N, 151.01 °W | Updated 38 minutes ago

Partly Cloudy
Partly Cloudy
33 °F
Feels Like 26 °F
N
9
Wind Variable Wind from South

Today
High -- | Low -- °F
--% Chance of Precip.
Yesterday
High -- | Low -- °F
Precip. -- in
Pressure 29.83 in
Visibility 10.0 miles
Clouds Overcast 8500 ft
Windchill 26 °F
Dew Point 31 °F
Humidity 92%
Rainfall 0.00 in
Snow Depth Not available.
2:00 PM 2:00 PM
New Moon, 1% visible
METAR PAQT 261553Z AUTO 18008KT 10SM OVC085 01/M01 A2983 RMK AO2 SLP101 T00061006 TSNO
Pressure 29.83 in
Visibility 10.0 miles
Clouds Overcast 8500 ft
Windchill 26 °F
Dew Point 31 °F
Humidity 92%
Rainfall 0.00 in
Snow Depth Not available.
2:00 PM 2:00 PM
New Moon, 1% visible
METAR PAQT 261553Z AUTO 18008KT 10SM OVC085 01/M01 A2983 RMK AO2 SLP101 T00061006 TSNO

Get Severe Weather Alerts

Thanks for signing up!

Be on the lookout for a verification email in your inbox.

You'll start receiving the daily forecast at 6 AM.

×

10-Day Weather Forecast

Almanac

Astronomy

May. 26, 2017 Rise Set
Actual Time
Civil Twilight
Nautical Twilight
Astronomical Twilight
Moon
Length of Visible Light
Length of Day
Tomorrow will be .
, % of the Moon is Illuminated

Today's Extremes

State Highs State Lows

Community

WunderPhotos

Category 6

Welcome to Category 6. This is the collective home for Weather Underground's featured writeups by Dr. Jeff Masters (right), Bob Henson (left), Chris Burt, and other regular contributors.

Nearby

Air Quality

  Air Quality AQ Index Pollutant
Not available.

Snow Depth

Station Depth Elevation

Earthquake Activity

City Distance Mag. Time & Date
Minimum magnitude displayed is 2.5.

Coastal Water Temperatures

Place Temperature

Stations

Nearby Weather Stations

Station Location Temp. Windchill Dew Point Humidity Wind Precip. Elev Updated Type
                   

Watches & Warnings

There are currently no watches in effect.